Utilizamos cookies propias y de terceros para ofrecer nuestros servicios, recoger información estadística e incluir publicidad. Si continua navegando acepta su instalación y uso. Puede cambiar la configuración u obtener más información en nuestra ACEPTAR | Más información

 INFORMACIÓN METAR y TAF
METAR FOR LECH
ADDS - METARS form results

(0758 UTC 23 September 2019)
Data provider http://aviationweather.gov/metar/data/
 
METAR text: LECH 230730Z AUTO VRB01KT 9999 ////// 19/11 Q1020
Conditions at: LECH (CASTELLON , ES) observed 0730 UTC 23 September 2019
Temperature: 19.0°C (66°F)
Dewpoint: 11.0°C (52°F) [RH = 60%]
Pressure (altimeter): 30.12 inches Hg (1020.0 mb)
Winds: variable direction winds at 1 MPH (1 knots; 0.5 m/s)
Visibility: 6 or more miles (10+ km)
Ceiling: unknown
Clouds: missing
Weather: no significant weather observed at this time

METAR text: LECH 230700Z AUTO 00000KT 9999 NCD 18/11 Q1020
Conditions at: LECH (CASTELLON , ES) observed 0700 UTC 23 September 2019
Temperature: 18.0°C (64°F)
Dewpoint: 11.0°C (52°F) [RH = 64%]
Pressure (altimeter): 30.12 inches Hg (1020.0 mb)
Winds: calm
Visibility: 6 or more miles (10+ km)
Ceiling: at least 12,000 feet AGL
Clouds: sky clear below 12,000 feet AGL
Weather: no significant weather observed at this time

 MAPA DE AEROPUERTO

 INFORMACIÓN DE PISTA

 FRECUANCIAS DEL AEROPUERTO

 RADIO AYUDAS DEL AEROPUERTO

© Todos los derechos reservados. Aviso Legal | Política de Privacidad | Política de cookies |